Time,TemperatureF,DewpointF,PressureIn,WindDirection,WindDirectionDegrees,WindSpeedMPH,WindSpeedGustMPH,Humidity,HourlyPrecipIn,Conditions,Clouds,dailyrainin,SoftwareType,DateUTC
2013-02-19 00:00:00,50.2,35.5,30.09,NNW,338,3.0,-999.0,57,0.00,,,0.00,Wunderground v.1.15,2013-02-19 06:00:00,
2013-02-19 00:05:00,50.2,35.5,30.09,NNW,338,3.0,-999.0,57,0.00,,,0.00,Wunderground v.1.15,2013-02-19 06:05:00,
2013-02-19 00:10:00,50.2,35.5,30.09,NNW,338,3.0,-999.0,57,0.00,,,0.00,Wunderground v.1.15,2013-02-19 06:10:00,
2013-02-19 00:15:00,50.2,35.5,30.09,NNW,338,3.0,-999.0,57,0.00,,,0.00,Wunderground v.1.15,2013-02-19 06:15:00,
2013-02-19 00:20:00,50.2,35.5,30.09,NNW,338,3.0,-999.0,57,0.00,,,0.00,Wunderground v.1.15,2013-02-19 06:20:00,
2013-02-19 00:25:00,49.2,35.0,30.09,NNE,23,3.0,-999.0,58,0.00,,,0.00,Wunderground v.1.15,2013-02-19 06:25:00,
2013-02-19 00:30:00,49.2,35.0,30.09,NNE,23,3.0,-999.0,58,0.00,,,0.00,Wunderground v.1.15,2013-02-19 06:30:00,
2013-02-19 00:35:00,49.2,35.0,30.09,NNE,23,3.0,-999.0,58,0.00,,,0.00,Wunderground v.1.15,2013-02-19 06:35:00,
2013-02-19 00:40:00,48.3,35.0,30.10,NNE,23,1.0,-999.0,60,0.00,,,0.00,Wunderground v.1.15,2013-02-19 06:40:00,
2013-02-19 00:45:00,48.3,35.0,30.10,NNE,23,1.0,-999.0,60,0.00,,,0.00,Wunderground v.1.15,2013-02-19 06:45:00,
2013-02-19 00:50:00,48.3,35.0,30.10,NNE,23,1.0,-999.0,60,0.00,,,0.00,Wunderground v.1.15,2013-02-19 06:50:00,
2013-02-19 00:55:00,47.5,34.7,30.10,NNE,23,1.0,-999.0,61,0.00,,,0.00,Wunderground v.1.15,2013-02-19 06:55:00,
2013-02-19 01:00:00,47.5,34.7,30.10,NNE,23,1.0,-999.0,61,0.00,,,0.00,Wunderground v.1.15,2013-02-19 07:00:00,
2013-02-19 01:05:00,47.5,34.7,30.10,NNE,23,1.0,-999.0,61,0.00,,,0.00,Wunderground v.1.15,2013-02-19 07:05:00,
2013-02-19 01:10:00,46.7,35.2,30.10,NE,45,1.0,-999.0,64,0.00,,,0.00,Wunderground v.1.15,2013-02-19 07:10:00,
2013-02-19 01:15:00,46.7,35.2,30.10,NE,45,1.0,-999.0,64,0.00,,,0.00,Wunderground v.1.15,2013-02-19 07:15:00,
2013-02-19 01:20:00,46.7,35.2,30.10,NE,45,1.0,-999.0,64,0.00,,,0.00,Wunderground v.1.15,2013-02-19 07:20:00,
2013-02-19 01:25:00,46.1,35.0,30.10,NE,45,1.0,-999.0,65,0.00,,,0.00,Wunderground v.1.15,2013-02-19 07:25:00,
2013-02-19 01:30:00,46.1,35.0,30.10,NE,45,1.0,-999.0,65,0.00,,,0.00,Wunderground v.1.15,2013-02-19 07:30:00,
2013-02-19 01:35:00,46.1,35.0,30.10,NE,45,1.0,-999.0,65,0.00,,,0.00,Wunderground v.1.15,2013-02-19 07:35:00,
2013-02-19 01:40:00,45.6,34.5,30.11,NE,45,0.0,-999.0,65,0.00,,,0.00,Wunderground v.1.15,2013-02-19 07:40:00,
2013-02-19 01:45:00,45.6,34.5,30.11,NE,45,0.0,-999.0,65,0.00,,,0.00,Wunderground v.1.15,2013-02-19 07:45:00,
2013-02-19 01:50:00,45.6,34.5,30.11,NE,45,0.0,-999.0,65,0.00,,,0.00,Wunderground v.1.15,2013-02-19 07:50:00,
2013-02-19 01:55:00,45.6,34.5,30.10,NE,45,1.0,-999.0,65,0.00,,,0.00,Wunderground v.1.15,2013-02-19 07:55:00,
2013-02-19 02:00:00,45.6,34.5,30.10,NE,45,1.0,-999.0,65,0.00,,,0.00,Wunderground v.1.15,2013-02-19 08:00:00,
2013-02-19 02:05:00,45.6,34.5,30.10,NE,45,1.0,-999.0,65,0.00,,,0.00,Wunderground v.1.15,2013-02-19 08:05:00,
2013-02-19 02:10:00,45.9,34.4,30.11,NE,45,1.0,-999.0,64,0.00,,,0.00,Wunderground v.1.15,2013-02-19 08:10:00,
2013-02-19 02:15:00,45.9,34.4,30.11,NE,45,1.0,-999.0,64,0.00,,,0.00,Wunderground v.1.15,2013-02-19 08:15:00,
2013-02-19 02:20:00,45.9,34.4,30.11,NE,45,1.0,-999.0,64,0.00,,,0.00,Wunderground v.1.15,2013-02-19 08:20:00,
2013-02-19 02:25:00,44.8,33.7,30.11,NE,45,0.0,-999.0,65,0.00,,,0.00,Wunderground v.1.15,2013-02-19 08:25:00,
2013-02-19 02:30:00,44.8,33.7,30.11,NE,45,0.0,-999.0,65,0.00,,,0.00,Wunderground v.1.15,2013-02-19 08:30:00,
2013-02-19 02:35:00,44.8,33.7,30.11,NE,45,0.0,-999.0,65,0.00,,,0.00,Wunderground v.1.15,2013-02-19 08:35:00,
2013-02-19 02:40:00,44.3,33.7,30.10,East,90,0.0,-999.0,66,0.00,,,0.00,Wunderground v.1.15,2013-02-19 08:40:00,
2013-02-19 02:45:00,44.3,33.7,30.10,East,90,0.0,-999.0,66,0.00,,,0.00,Wunderground v.1.15,2013-02-19 08:45:00,
2013-02-19 02:50:00,44.3,33.7,30.10,East,90,0.0,-999.0,66,0.00,,,0.00,Wunderground v.1.15,2013-02-19 08:50:00,
2013-02-19 02:55:00,43.5,34.0,30.10,N/A,-737280,0.0,-999.0,69,0.00,,,0.00,Wunderground v.1.15,2013-02-19 08:55:00,
2013-02-19 03:00:00,43.5,34.0,30.10,N/A,-737280,0.0,-999.0,69,0.00,,,0.00,Wunderground v.1.15,2013-02-19 09:00:00,
2013-02-19 03:05:00,43.5,34.0,30.10,N/A,-737280,0.0,-999.0,69,0.00,,,0.00,Wunderground v.1.15,2013-02-19 09:05:00,
2013-02-19 03:10:00,42.3,33.6,30.09,ENE,68,0.0,-999.0,71,0.00,,,0.00,Wunderground v.1.15,2013-02-19 09:10:00,
2013-02-19 03:15:00,42.3,33.6,30.09,ENE,68,0.0,-999.0,71,0.00,,,0.00,Wunderground v.1.15,2013-02-19 09:15:00,
2013-02-19 03:20:00,42.3,33.6,30.09,ENE,68,0.0,-999.0,71,0.00,,,0.00,Wunderground v.1.15,2013-02-19 09:20:00,
2013-02-19 03:25:00,42.9,33.8,30.10,ENE,68,0.0,-999.0,70,0.00,,,0.00,Wunderground v.1.15,2013-02-19 09:25:00,
2013-02-19 03:30:00,42.9,33.8,30.10,ENE,68,0.0,-999.0,70,0.00,,,0.00,Wunderground v.1.15,2013-02-19 09:30:00,
2013-02-19 03:35:00,42.9,33.8,30.10,ENE,68,0.0,-999.0,70,0.00,,,0.00,Wunderground v.1.15,2013-02-19 09:35:00,
2013-02-19 03:40:00,43.0,33.5,30.09,ENE,68,0.0,-999.0,69,0.00,,,0.00,Wunderground v.1.15,2013-02-19 09:40:00,
2013-02-19 03:45:00,43.0,33.5,30.09,ENE,68,0.0,-999.0,69,0.00,,,0.00,Wunderground v.1.15,2013-02-19 09:45:00,
2013-02-19 03:50:00,43.0,33.5,30.09,ENE,68,0.0,-999.0,69,0.00,,,0.00,Wunderground v.1.15,2013-02-19 09:50:00,
2013-02-19 03:55:00,43.2,33.3,30.10,ENE,68,1.0,-999.0,68,0.00,,,0.00,Wunderground v.1.15,2013-02-19 09:55:00,
2013-02-19 04:00:00,43.2,33.3,30.10,ENE,68,1.0,-999.0,68,0.00,,,0.00,Wunderground v.1.15,2013-02-19 10:00:00,
2013-02-19 04:05:00,43.2,33.3,30.10,ENE,68,1.0,-999.0,68,0.00,,,0.00,Wunderground v.1.15,2013-02-19 10:05:00,
2013-02-19 04:10:00,43.2,33.0,30.11,ENE,68,0.0,-999.0,67,0.00,,,0.00,Wunderground v.1.15,2013-02-19 10:10:00,
2013-02-19 04:15:00,43.2,33.0,30.11,ENE,68,0.0,-999.0,67,0.00,,,0.00,Wunderground v.1.15,2013-02-19 10:15:00,
2013-02-19 04:20:00,43.2,33.0,30.11,ENE,68,0.0,-999.0,67,0.00,,,0.00,Wunderground v.1.15,2013-02-19 10:20:00,
2013-02-19 04:25:00,42.7,32.9,30.13,N/A,-737280,0.0,-999.0,68,0.00,,,0.00,Wunderground v.1.15,2013-02-19 10:25:00,
2013-02-19 04:30:00,42.7,32.9,30.13,N/A,-737280,0.0,-999.0,68,0.00,,,0.00,Wunderground v.1.15,2013-02-19 10:30:00,
2013-02-19 04:35:00,42.7,32.9,30.13,N/A,-737280,0.0,-999.0,68,0.00,,,0.00,Wunderground v.1.15,2013-02-19 10:35:00,
2013-02-19 04:40:00,41.5,32.4,30.13,North,0,0.0,-999.0,70,0.00,,,0.00,Wunderground v.1.15,2013-02-19 10:40:00,
2013-02-19 04:45:00,41.5,32.4,30.13,North,0,0.0,-999.0,70,0.00,,,0.00,Wunderground v.1.15,2013-02-19 10:45:00,
2013-02-19 04:50:00,41.5,32.4,30.13,North,0,0.0,-999.0,70,0.00,,,0.00,Wunderground v.1.15,2013-02-19 10:50:00,
2013-02-19 04:55:00,40.6,32.3,30.14,N/A,-737280,0.0,-999.0,72,0.00,,,0.00,Wunderground v.1.15,2013-02-19 10:55:00,
2013-02-19 05:00:00,40.6,32.3,30.14,N/A,-737280,0.0,-999.0,72,0.00,,,0.00,Wunderground v.1.15,2013-02-19 11:00:00,
2013-02-19 05:05:00,40.6,32.3,30.14,N/A,-737280,0.0,-999.0,72,0.00,,,0.00,Wunderground v.1.15,2013-02-19 11:05:00,
2013-02-19 05:10:00,40.6,32.6,30.15,N/A,-737280,0.0,-999.0,73,0.00,,,0.00,Wunderground v.1.15,2013-02-19 11:10:00,
2013-02-19 05:15:00,40.6,32.6,30.15,N/A,-737280,0.0,-999.0,73,0.00,,,0.00,Wunderground v.1.15,2013-02-19 11:15:00,
2013-02-19 05:20:00,40.6,32.6,30.15,N/A,-737280,0.0,-999.0,73,0.00,,,0.00,Wunderground v.1.15,2013-02-19 11:20:00,
2013-02-19 05:25:00,40.6,32.3,30.16,N/A,-737280,0.0,-999.0,72,0.00,,,0.00,Wunderground v.1.15,2013-02-19 11:25:00,
2013-02-19 05:30:00,40.6,32.3,30.16,N/A,-737280,0.0,-999.0,72,0.00,,,0.00,Wunderground v.1.15,2013-02-19 11:30:00,
2013-02-19 05:35:00,40.6,32.3,30.16,N/A,-737280,0.0,-999.0,72,0.00,,,0.00,Wunderground v.1.15,2013-02-19 11:35:00,
2013-02-19 05:40:00,39.2,31.9,30.15,N/A,-737280,0.0,-999.0,75,0.00,,,0.00,Wunderground v.1.15,2013-02-19 11:40:00,
2013-02-19 05:45:00,39.2,31.9,30.15,N/A,-737280,0.0,-999.0,75,0.00,,,0.00,Wunderground v.1.15,2013-02-19 11:45:00,
2013-02-19 05:50:00,39.2,31.9,30.15,N/A,-737280,0.0,-999.0,75,0.00,,,0.00,Wunderground v.1.15,2013-02-19 11:50:00,
2013-02-19 05:55:00,39.3,32.4,30.16,NE,45,0.0,-999.0,76,0.00,,,0.00,Wunderground v.1.15,2013-02-19 11:55:00,
2013-02-19 06:00:00,39.3,32.4,30.16,NE,45,0.0,-999.0,76,0.00,,,0.00,Wunderground v.1.15,2013-02-19 12:00:00,
2013-02-19 06:05:00,39.3,32.4,30.16,NE,45,0.0,-999.0,76,0.00,,,0.00,Wunderground v.1.15,2013-02-19 12:05:00,
2013-02-19 06:10:00,39.4,32.5,30.17,N/A,-737280,0.0,-999.0,76,0.00,,,0.00,Wunderground v.1.15,2013-02-19 12:10:00,
2013-02-19 06:15:00,39.4,32.5,30.17,N/A,-737280,0.0,-999.0,76,0.00,,,0.00,Wunderground v.1.15,2013-02-19 12:15:00,
2013-02-19 06:20:00,39.4,32.5,30.17,N/A,-737280,0.0,-999.0,76,0.00,,,0.00,Wunderground v.1.15,2013-02-19 12:20:00,
2013-02-19 06:25:00,39.3,32.4,30.19,N/A,-737280,0.0,-999.0,76,0.00,,,0.00,Wunderground v.1.15,2013-02-19 12:25:00,
2013-02-19 06:30:00,39.3,32.4,30.19,N/A,-737280,0.0,-999.0,76,0.00,,,0.00,Wunderground v.1.15,2013-02-19 12:30:00,
2013-02-19 06:35:00,39.3,32.4,30.19,N/A,-737280,0.0,-999.0,76,0.00,,,0.00,Wunderground v.1.15,2013-02-19 12:35:00,
2013-02-19 06:40:00,39.4,32.1,30.21,N/A,-737280,0.0,-999.0,75,0.00,,,0.00,Wunderground v.1.15,2013-02-19 12:40:00,
2013-02-19 06:45:00,39.4,32.1,30.21,N/A,-737280,0.0,-999.0,75,0.00,,,0.00,Wunderground v.1.15,2013-02-19 12:45:00,
2013-02-19 06:50:00,39.4,32.1,30.21,N/A,-737280,0.0,-999.0,75,0.00,,,0.00,Wunderground v.1.15,2013-02-19 12:50:00,
2013-02-19 06:55:00,39.6,32.3,30.22,N/A,-737280,0.0,-999.0,75,0.00,,,0.00,Wunderground v.1.15,2013-02-19 12:55:00,
2013-02-19 07:00:00,39.6,32.3,30.22,N/A,-737280,0.0,-999.0,75,0.00,,,0.00,Wunderground v.1.15,2013-02-19 13:00:00,
2013-02-19 07:05:00,39.6,32.3,30.22,N/A,-737280,0.0,-999.0,75,0.00,,,0.00,Wunderground v.1.15,2013-02-19 13:05:00,
2013-02-19 07:10:00,39.0,32.4,30.22,N/A,-737280,0.0,-999.0,77,0.00,,,0.00,Wunderground v.1.15,2013-02-19 13:10:00,
2013-02-19 07:15:00,39.0,32.4,30.22,N/A,-737280,0.0,-999.0,77,0.00,,,0.00,Wunderground v.1.15,2013-02-19 13:15:00,
2013-02-19 07:20:00,39.0,32.4,30.22,N/A,-737280,0.0,-999.0,77,0.00,,,0.00,Wunderground v.1.15,2013-02-19 13:20:00,
2013-02-19 07:25:00,40.6,33.3,30.23,NE,45,0.0,-999.0,75,0.00,,,0.00,Wunderground v.1.15,2013-02-19 13:25:00,
2013-02-19 07:30:00,40.6,33.3,30.23,NE,45,0.0,-999.0,75,0.00,,,0.00,Wunderground v.1.15,2013-02-19 13:30:00,
2013-02-19 07:35:00,40.6,33.3,30.23,NE,45,0.0,-999.0,75,0.00,,,0.00,Wunderground v.1.15,2013-02-19 13:35:00,
2013-02-19 07:40:00,42.0,34.0,30.24,NE,45,1.0,-999.0,73,0.00,,,0.00,Wunderground v.1.15,2013-02-19 13:40:00,
2013-02-19 07:45:00,42.0,34.0,30.24,NE,45,1.0,-999.0,73,0.00,,,0.00,Wunderground v.1.15,2013-02-19 13:45:00,
2013-02-19 07:50:00,42.0,34.0,30.24,NE,45,1.0,-999.0,73,0.00,,,0.00,Wunderground v.1.15,2013-02-19 13:50:00,
2013-02-19 07:55:00,43.5,34.4,30.24,NE,45,4.0,-999.0,70,0.00,,,0.00,Wunderground v.1.15,2013-02-19 13:55:00,
2013-02-19 08:00:00,43.5,34.4,30.24,NE,45,4.0,-999.0,70,0.00,,,0.00,Wunderground v.1.15,2013-02-19 14:00:00,
2013-02-19 08:05:00,43.5,34.4,30.24,NE,45,4.0,-999.0,70,0.00,,,0.00,Wunderground v.1.15,2013-02-19 14:05:00,
2013-02-19 08:10:00,44.8,34.5,30.25,NE,45,5.0,-999.0,67,0.00,,,0.00,Wunderground v.1.15,2013-02-19 14:10:00,
2013-02-19 08:15:00,44.8,34.5,30.25,NE,45,5.0,-999.0,67,0.00,,,0.00,Wunderground v.1.15,2013-02-19 14:15:00,
2013-02-19 08:20:00,44.8,34.5,30.25,NE,45,5.0,-999.0,67,0.00,,,0.00,Wunderground v.1.15,2013-02-19 14:20:00,
2013-02-19 08:25:00,45.9,34.0,30.27,ENE,68,3.0,-999.0,63,0.00,,,0.00,Wunderground v.1.15,2013-02-19 14:25:00,
2013-02-19 08:30:00,45.9,34.0,30.27,ENE,68,3.0,-999.0,63,0.00,,,0.00,Wunderground v.1.15,2013-02-19 14:30:00,
2013-02-19 08:35:00,45.9,34.0,30.27,ENE,68,3.0,-999.0,63,0.00,,,0.00,Wunderground v.1.15,2013-02-19 14:35:00,
2013-02-19 08:40:00,47.0,34.6,30.27,ENE,68,2.0,-999.0,62,0.00,,,0.00,Wunderground v.1.15,2013-02-19 14:40:00,
2013-02-19 08:45:00,47.0,34.6,30.27,ENE,68,2.0,-999.0,62,0.00,,,0.00,Wunderground v.1.15,2013-02-19 14:45:00,
2013-02-19 08:50:00,47.0,34.6,30.27,ENE,68,2.0,-999.0,62,0.00,,,0.00,Wunderground v.1.15,2013-02-19 14:50:00,
2013-02-19 08:55:00,48.0,33.0,30.28,East,90,4.0,-999.0,56,0.00,,,0.00,Wunderground v.1.15,2013-02-19 14:55:00,
2013-02-19 09:00:00,48.0,33.0,30.28,East,90,4.0,-999.0,56,0.00,,,0.00,Wunderground v.1.15,2013-02-19 15:00:00,
2013-02-19 09:05:00,48.0,33.0,30.28,East,90,4.0,-999.0,56,0.00,,,0.00,Wunderground v.1.15,2013-02-19 15:05:00,
2013-02-19 09:10:00,48.6,33.1,30.28,East,90,6.0,-999.0,55,0.00,,,0.00,Wunderground v.1.15,2013-02-19 15:10:00,
2013-02-19 09:15:00,48.6,33.1,30.28,East,90,6.0,-999.0,55,0.00,,,0.00,Wunderground v.1.15,2013-02-19 15:15:00,
2013-02-19 09:20:00,48.6,33.1,30.28,East,90,6.0,-999.0,55,0.00,,,0.00,Wunderground v.1.15,2013-02-19 15:20:00,
2013-02-19 09:25:00,49.2,32.8,30.27,East,90,5.0,-999.0,53,0.00,,,0.00,Wunderground v.1.15,2013-02-19 15:25:00,
2013-02-19 09:30:00,49.2,32.8,30.27,East,90,5.0,-999.0,53,0.00,,,0.00,Wunderground v.1.15,2013-02-19 15:30:00,
2013-02-19 09:35:00,49.2,32.8,30.27,East,90,5.0,-999.0,53,0.00,,,0.00,Wunderground v.1.15,2013-02-19 15:35:00,
2013-02-19 09:40:00,50.5,31.0,30.28,East,90,6.0,-999.0,47,0.00,,,0.00,Wunderground v.1.15,2013-02-19 15:40:00,
2013-02-19 09:45:00,50.5,31.0,30.28,East,90,6.0,-999.0,47,0.00,,,0.00,Wunderground v.1.15,2013-02-19 15:45:00,
2013-02-19 09:50:00,50.5,31.0,30.28,East,90,6.0,-999.0,47,0.00,,,0.00,Wunderground v.1.15,2013-02-19 15:50:00,
2013-02-19 09:55:00,51.2,30.0,30.27,East,90,7.0,-999.0,44,0.00,,,0.00,Wunderground v.1.15,2013-02-19 15:55:00,
2013-02-19 10:00:00,51.2,30.0,30.27,East,90,7.0,-999.0,44,0.00,,,0.00,Wunderground v.1.15,2013-02-19 16:00:00,
2013-02-19 10:05:00,51.2,30.0,30.27,East,90,7.0,-999.0,44,0.00,,,0.00,Wunderground v.1.15,2013-02-19 16:05:00,
2013-02-19 10:10:00,52.2,28.6,30.27,East,90,11.0,-999.0,40,0.00,,,0.00,Wunderground v.1.15,2013-02-19 16:10:00,
2013-02-19 10:15:00,52.2,28.6,30.27,East,90,11.0,-999.0,40,0.00,,,0.00,Wunderground v.1.15,2013-02-19 16:15:00,
2013-02-19 10:20:00,52.2,28.6,30.27,East,90,11.0,-999.0,40,0.00,,,0.00,Wunderground v.1.15,2013-02-19 16:20:00,
2013-02-19 10:25:00,53.0,27.4,30.27,East,90,12.0,-999.0,37,0.00,,,0.00,Wunderground v.1.15,2013-02-19 16:25:00,
2013-02-19 10:30:00,53.0,27.4,30.27,East,90,12.0,-999.0,37,0.00,,,0.00,Wunderground v.1.15,2013-02-19 16:30:00,
2013-02-19 10:35:00,53.0,27.4,30.27,East,90,12.0,-999.0,37,0.00,,,0.00,Wunderground v.1.15,2013-02-19 16:35:00,
2013-02-19 10:40:00,53.7,27.4,30.27,East,90,11.0,-999.0,36,0.00,,,0.00,Wunderground v.1.15,2013-02-19 16:40:00,
2013-02-19 10:45:00,53.7,27.4,30.27,East,90,11.0,-999.0,36,0.00,,,0.00,Wunderground v.1.15,2013-02-19 16:45:00,
2013-02-19 10:50:00,53.7,27.4,30.27,East,90,11.0,-999.0,36,0.00,,,0.00,Wunderground v.1.15,2013-02-19 16:50:00,
2013-02-19 10:55:00,54.8,26.2,30.28,East,90,9.0,-999.0,33,0.00,,,0.00,Wunderground v.1.15,2013-02-19 16:55:00,
2013-02-19 11:00:00,54.8,26.2,30.28,East,90,9.0,-999.0,33,0.00,,,0.00,Wunderground v.1.15,2013-02-19 17:00:00,
2013-02-19 11:05:00,54.8,26.2,30.28,East,90,9.0,-999.0,33,0.00,,,0.00,Wunderground v.1.15,2013-02-19 17:05:00,
2013-02-19 11:10:00,55.6,28.4,30.28,ENE,68,7.0,-999.0,35,0.00,,,0.00,Wunderground v.1.15,2013-02-19 17:10:00,
2013-02-19 11:15:00,55.6,28.4,30.28,ENE,68,7.0,-999.0,35,0.00,,,0.00,Wunderground v.1.15,2013-02-19 17:15:00,
2013-02-19 11:20:00,55.6,28.4,30.28,ENE,68,7.0,-999.0,35,0.00,,,0.00,Wunderground v.1.15,2013-02-19 17:20:00,
2013-02-19 11:25:00,56.2,30.2,30.28,ENE,68,7.0,-999.0,37,0.00,,,0.00,Wunderground v.1.15,2013-02-19 17:25:00,
2013-02-19 11:30:00,56.2,30.2,30.28,ENE,68,7.0,-999.0,37,0.00,,,0.00,Wunderground v.1.15,2013-02-19 17:30:00,
2013-02-19 11:35:00,56.2,30.2,30.28,ENE,68,7.0,-999.0,37,0.00,,,0.00,Wunderground v.1.15,2013-02-19 17:35:00,
2013-02-19 11:40:00,57.4,27.7,30.27,East,90,11.0,-999.0,32,0.00,,,0.00,Wunderground v.1.15,2013-02-19 17:40:00,
2013-02-19 11:45:00,57.4,27.7,30.27,East,90,11.0,-999.0,32,0.00,,,0.00,Wunderground v.1.15,2013-02-19 17:45:00,
2013-02-19 11:50:00,57.4,27.7,30.27,East,90,11.0,-999.0,32,0.00,,,0.00,Wunderground v.1.15,2013-02-19 17:50:00,
2013-02-19 11:55:00,57.6,24.7,30.27,East,90,11.0,-999.0,28,0.00,,,0.00,Wunderground v.1.15,2013-02-19 17:55:00,
2013-02-19 12:00:00,57.6,24.7,30.27,East,90,11.0,-999.0,28,0.00,,,0.00,Wunderground v.1.15,2013-02-19 18:00:00,
2013-02-19 12:05:00,57.6,24.7,30.27,East,90,11.0,-999.0,28,0.00,,,0.00,Wunderground v.1.15,2013-02-19 18:05:00,
2013-02-19 12:10:00,58.4,24.5,30.27,East,90,12.0,-999.0,27,0.00,,,0.00,Wunderground v.1.15,2013-02-19 18:10:00,
2013-02-19 12:15:00,58.4,24.5,30.27,East,90,12.0,-999.0,27,0.00,,,0.00,Wunderground v.1.15,2013-02-19 18:15:00,
2013-02-19 12:20:00,58.4,24.5,30.27,East,90,12.0,-999.0,27,0.00,,,0.00,Wunderground v.1.15,2013-02-19 18:20:00,
2013-02-19 12:25:00,59.0,22.2,30.26,East,90,11.0,-999.0,24,0.00,,,0.00,Wunderground v.1.15,2013-02-19 18:25:00,
2013-02-19 12:30:00,59.0,22.2,30.26,East,90,11.0,-999.0,24,0.00,,,0.00,Wunderground v.1.15,2013-02-19 18:30:00,
2013-02-19 12:35:00,59.0,22.2,30.26,East,90,11.0,-999.0,24,0.00,,,0.00,Wunderground v.1.15,2013-02-19 18:35:00,
2013-02-19 12:40:00,58.9,23.1,30.25,East,90,11.0,-999.0,25,0.00,,,0.00,Wunderground v.1.15,2013-02-19 18:40:00,
2013-02-19 12:45:00,58.9,23.1,30.25,East,90,11.0,-999.0,25,0.00,,,0.00,Wunderground v.1.15,2013-02-19 18:45:00,
2013-02-19 12:50:00,58.9,23.1,30.25,East,90,11.0,-999.0,25,0.00,,,0.00,Wunderground v.1.15,2013-02-19 18:50:00,
2013-02-19 12:55:00,59.7,22.8,30.23,East,90,14.0,-999.0,24,0.00,,,0.00,Wunderground v.1.15,2013-02-19 18:55:00,
2013-02-19 13:00:00,59.7,22.8,30.23,East,90,14.0,-999.0,24,0.00,,,0.00,Wunderground v.1.15,2013-02-19 19:00:00,
2013-02-19 13:05:00,59.7,22.8,30.23,East,90,14.0,-999.0,24,0.00,,,0.00,Wunderground v.1.15,2013-02-19 19:05:00,
2013-02-19 13:10:00,59.7,21.8,30.22,East,90,13.0,-999.0,23,0.00,,,0.00,Wunderground v.1.15,2013-02-19 19:10:00,
2013-02-19 13:15:00,59.7,21.8,30.22,East,90,13.0,-999.0,23,0.00,,,0.00,Wunderground v.1.15,2013-02-19 19:15:00,
2013-02-19 13:20:00,59.7,21.8,30.22,East,90,13.0,-999.0,23,0.00,,,0.00,Wunderground v.1.15,2013-02-19 19:20:00,
2013-02-19 13:25:00,60.1,23.1,30.21,East,90,11.0,-999.0,24,0.00,,,0.00,Wunderground v.1.15,2013-02-19 19:25:00,
2013-02-19 13:30:00,60.1,23.1,30.21,East,90,11.0,-999.0,24,0.00,,,0.00,Wunderground v.1.15,2013-02-19 19:30:00,
2013-02-19 13:35:00,60.1,23.1,30.21,East,90,11.0,-999.0,24,0.00,,,0.00,Wunderground v.1.15,2013-02-19 19:35:00,
2013-02-19 13:40:00,60.3,21.2,30.21,East,90,9.0,-999.0,22,0.00,,,0.00,Wunderground v.1.15,2013-02-19 19:40:00,
2013-02-19 13:45:00,60.3,21.2,30.21,East,90,9.0,-999.0,22,0.00,,,0.00,Wunderground v.1.15,2013-02-19 19:45:00,
2013-02-19 13:50:00,60.3,21.2,30.21,East,90,9.0,-999.0,22,0.00,,,0.00,Wunderground v.1.15,2013-02-19 19:50:00,
2013-02-19 13:55:00,60.8,24.7,30.20,East,90,8.0,-999.0,25,0.00,,,0.00,Wunderground v.1.15,2013-02-19 19:55:00,
2013-02-19 14:00:00,60.8,24.7,30.20,East,90,8.0,-999.0,25,0.00,,,0.00,Wunderground v.1.15,2013-02-19 20:00:00,
2013-02-19 14:05:00,60.8,24.7,30.20,East,90,8.0,-999.0,25,0.00,,,0.00,Wunderground v.1.15,2013-02-19 20:05:00,
2013-02-19 14:10:00,61.1,26.8,30.18,East,90,8.0,-999.0,27,0.00,,,0.00,Wunderground v.1.15,2013-02-19 20:10:00,
2013-02-19 14:15:00,61.1,26.8,30.18,East,90,8.0,-999.0,27,0.00,,,0.00,Wunderground v.1.15,2013-02-19 20:15:00,
2013-02-19 14:20:00,61.1,26.8,30.18,East,90,8.0,-999.0,27,0.00,,,0.00,Wunderground v.1.15,2013-02-19 20:20:00,
2013-02-19 14:25:00,61.2,26.0,30.18,East,90,6.0,-999.0,26,0.00,,,0.00,Wunderground v.1.15,2013-02-19 20:25:00,
2013-02-19 14:30:00,61.2,26.0,30.18,East,90,6.0,-999.0,26,0.00,,,0.00,Wunderground v.1.15,2013-02-19 20:30:00,
2013-02-19 14:35:00,61.2,26.0,30.18,East,90,6.0,-999.0,26,0.00,,,0.00,Wunderground v.1.15,2013-02-19 20:35:00,
2013-02-19 14:40:00,61.3,28.7,30.17,East,90,8.0,-999.0,29,0.00,,,0.00,Wunderground v.1.15,2013-02-19 20:40:00,
2013-02-19 14:45:00,61.3,28.7,30.17,East,90,8.0,-999.0,29,0.00,,,0.00,Wunderground v.1.15,2013-02-19 20:45:00,
2013-02-19 14:50:00,61.3,28.7,30.17,East,90,8.0,-999.0,29,0.00,,,0.00,Wunderground v.1.15,2013-02-19 20:50:00,
2013-02-19 14:55:00,61.6,27.3,30.17,East,90,8.0,-999.0,27,0.00,,,0.00,Wunderground v.1.15,2013-02-19 20:55:00,
2013-02-19 15:00:00,61.6,27.3,30.17,East,90,8.0,-999.0,27,0.00,,,0.00,Wunderground v.1.15,2013-02-19 21:00:00,
2013-02-19 15:05:00,61.6,27.3,30.17,East,90,8.0,-999.0,27,0.00,,,0.00,Wunderground v.1.15,2013-02-19 21:05:00,
2013-02-19 15:10:00,62.0,26.7,30.15,East,90,8.0,-999.0,26,0.00,,,0.00,Wunderground v.1.15,2013-02-19 21:10:00,
2013-02-19 15:15:00,62.0,26.7,30.15,East,90,8.0,-999.0,26,0.00,,,0.00,Wunderground v.1.15,2013-02-19 21:15:00,
2013-02-19 15:20:00,62.0,26.7,30.15,East,90,8.0,-999.0,26,0.00,,,0.00,Wunderground v.1.15,2013-02-19 21:20:00,
2013-02-19 15:25:00,62.1,27.7,30.14,East,90,10.0,-999.0,27,0.00,,,0.00,Wunderground v.1.15,2013-02-19 21:25:00,
2013-02-19 15:30:00,62.1,27.7,30.14,East,90,10.0,-999.0,27,0.00,,,0.00,Wunderground v.1.15,2013-02-19 21:30:00,
2013-02-19 15:35:00,62.1,27.7,30.14,East,90,10.0,-999.0,27,0.00,,,0.00,Wunderground v.1.15,2013-02-19 21:35:00,
2013-02-19 15:40:00,61.2,25.1,30.14,East,90,8.0,-999.0,25,0.00,,,0.00,Wunderground v.1.15,2013-02-19 21:40:00,
2013-02-19 15:45:00,61.2,25.1,30.14,East,90,8.0,-999.0,25,0.00,,,0.00,Wunderground v.1.15,2013-02-19 21:45:00,
2013-02-19 15:50:00,61.2,25.1,30.14,East,90,8.0,-999.0,25,0.00,,,0.00,Wunderground v.1.15,2013-02-19 21:50:00,
2013-02-19 15:55:00,62.2,24.9,30.13,East,90,8.0,-999.0,24,0.00,,,0.00,Wunderground v.1.15,2013-02-19 21:55:00,
2013-02-19 16:00:00,62.2,24.9,30.13,East,90,8.0,-999.0,24,0.00,,,0.00,Wunderground v.1.15,2013-02-19 22:00:00,
2013-02-19 16:05:00,62.2,24.9,30.13,East,90,8.0,-999.0,24,0.00,,,0.00,Wunderground v.1.15,2013-02-19 22:05:00,
2013-02-19 16:10:00,62.4,24.1,30.14,East,90,9.0,-999.0,23,0.00,,,0.00,Wunderground v.1.15,2013-02-19 22:10:00,
2013-02-19 16:15:00,62.4,24.1,30.14,East,90,9.0,-999.0,23,0.00,,,0.00,Wunderground v.1.15,2013-02-19 22:15:00,
2013-02-19 16:20:00,62.4,24.1,30.14,East,90,9.0,-999.0,23,0.00,,,0.00,Wunderground v.1.15,2013-02-19 22:20:00,
2013-02-19 16:25:00,62.5,25.2,30.13,East,90,8.0,-999.0,24,0.00,,,0.00,Wunderground v.1.15,2013-02-19 22:25:00,
2013-02-19 16:30:00,62.5,25.2,30.13,East,90,8.0,-999.0,24,0.00,,,0.00,Wunderground v.1.15,2013-02-19 22:30:00,
2013-02-19 16:35:00,62.5,25.2,30.13,East,90,8.0,-999.0,24,0.00,,,0.00,Wunderground v.1.15,2013-02-19 22:35:00,
2013-02-19 16:40:00,61.3,25.1,30.14,ESE,113,8.0,-999.0,25,0.00,,,0.00,Wunderground v.1.15,2013-02-19 22:40:00,
2013-02-19 16:45:00,61.3,25.1,30.14,ESE,113,8.0,-999.0,25,0.00,,,0.00,Wunderground v.1.15,2013-02-19 22:45:00,
2013-02-19 16:50:00,61.3,25.1,30.14,ESE,113,8.0,-999.0,25,0.00,,,0.00,Wunderground v.1.15,2013-02-19 22:50:00,
2013-02-19 16:55:00,62.2,24.9,30.13,ESE,113,8.0,-999.0,24,0.00,,,0.00,Wunderground v.1.15,2013-02-19 22:55:00,
2013-02-19 17:00:00,62.2,24.9,30.13,ESE,113,8.0,-999.0,24,0.00,,,0.00,Wunderground v.1.15,2013-02-19 23:00:00,
2013-02-19 17:05:00,62.2,24.9,30.13,ESE,113,8.0,-999.0,24,0.00,,,0.00,Wunderground v.1.15,2013-02-19 23:05:00,
2013-02-19 17:10:00,62.1,24.8,30.13,ESE,113,10.0,-999.0,24,0.00,,,0.00,Wunderground v.1.15,2013-02-19 23:10:00,
2013-02-19 17:15:00,62.1,24.8,30.13,ESE,113,10.0,-999.0,24,0.00,,,0.00,Wunderground v.1.15,2013-02-19 23:15:00,
2013-02-19 17:20:00,62.1,24.8,30.13,ESE,113,10.0,-999.0,24,0.00,,,0.00,Wunderground v.1.15,2013-02-19 23:20:00,
2013-02-19 17:25:00,60.9,26.7,30.14,ESE,113,8.0,-999.0,27,0.00,,,0.00,Wunderground v.1.15,2013-02-19 23:25:00,
2013-02-19 17:30:00,60.9,26.7,30.14,ESE,113,8.0,-999.0,27,0.00,,,0.00,Wunderground v.1.15,2013-02-19 23:30:00,
2013-02-19 17:35:00,60.9,26.7,30.14,ESE,113,8.0,-999.0,27,0.00,,,0.00,Wunderground v.1.15,2013-02-19 23:35:00,
2013-02-19 17:40:00,59.0,26.8,30.13,East,90,7.0,-999.0,29,0.00,,,0.00,Wunderground v.1.15,2013-02-19 23:40:00,
2013-02-19 17:45:00,59.0,26.8,30.13,East,90,7.0,-999.0,29,0.00,,,0.00,Wunderground v.1.15,2013-02-19 23:45:00,
2013-02-19 17:50:00,59.0,26.8,30.13,East,90,7.0,-999.0,29,0.00,,,0.00,Wunderground v.1.15,2013-02-19 23:50:00,
2013-02-19 17:55:00,57.9,27.4,30.13,ESE,113,5.0,-999.0,31,0.00,,,0.00,Wunderground v.1.15,2013-02-19 23:55:00,
2013-02-19 18:00:00,57.9,27.4,30.13,ESE,113,5.0,-999.0,31,0.00,,,0.00,Wunderground v.1.15,2013-02-20 00:00:00,
2013-02-19 18:05:00,57.9,27.4,30.13,ESE,113,5.0,-999.0,31,0.00,,,0.00,Wunderground v.1.15,2013-02-20 00:05:00,
2013-02-19 18:10:00,57.4,28.5,30.14,ESE,113,4.0,-999.0,33,0.00,,,0.00,Wunderground v.1.15,2013-02-20 00:10:00,
2013-02-19 18:15:00,57.4,28.5,30.14,ESE,113,4.0,-999.0,33,0.00,,,0.00,Wunderground v.1.15,2013-02-20 00:15:00,
2013-02-19 18:20:00,57.4,28.5,30.14,ESE,113,4.0,-999.0,33,0.00,,,0.00,Wunderground v.1.15,2013-02-20 00:20:00,
2013-02-19 18:25:00,56.8,28.7,30.14,ESE,113,3.0,-999.0,34,0.00,,,0.00,Wunderground v.1.15,2013-02-20 00:25:00,
2013-02-19 18:30:00,56.8,28.7,30.14,ESE,113,3.0,-999.0,34,0.00,,,0.00,Wunderground v.1.15,2013-02-20 00:30:00,
2013-02-19 18:35:00,56.8,28.7,30.14,ESE,113,3.0,-999.0,34,0.00,,,0.00,Wunderground v.1.15,2013-02-20 00:35:00,
2013-02-19 18:40:00,55.7,29.8,30.13,ESE,113,3.0,-999.0,37,0.00,,,0.00,Wunderground v.1.15,2013-02-20 00:40:00,
2013-02-19 18:45:00,55.7,29.8,30.13,ESE,113,3.0,-999.0,37,0.00,,,0.00,Wunderground v.1.15,2013-02-20 00:45:00,
2013-02-19 18:50:00,55.7,29.8,30.13,ESE,113,3.0,-999.0,37,0.00,,,0.00,Wunderground v.1.15,2013-02-20 00:50:00,
2013-02-19 18:55:00,55.4,29.5,30.13,ESE,113,3.0,-999.0,37,0.00,,,0.00,Wunderground v.1.15,2013-02-20 00:55:00,
2013-02-19 19:00:00,55.4,29.5,30.13,ESE,113,3.0,-999.0,37,0.00,,,0.00,Wunderground v.1.15,2013-02-20 01:00:00,
2013-02-19 19:05:00,55.4,29.5,30.13,ESE,113,3.0,-999.0,37,0.00,,,0.00,Wunderground v.1.15,2013-02-20 01:05:00,
2013-02-19 19:10:00,55.5,30.3,30.13,ESE,113,4.0,-999.0,38,0.00,,,0.00,Wunderground v.1.15,2013-02-20 01:10:00,
2013-02-19 19:15:00,55.5,30.3,30.13,ESE,113,4.0,-999.0,38,0.00,,,0.00,Wunderground v.1.15,2013-02-20 01:15:00,
2013-02-19 19:20:00,55.5,30.3,30.13,ESE,113,4.0,-999.0,38,0.00,,,0.00,Wunderground v.1.15,2013-02-20 01:20:00,
2013-02-19 19:25:00,55.4,30.8,30.13,ESE,113,3.0,-999.0,39,0.00,,,0.00,Wunderground v.1.15,2013-02-20 01:25:00,
2013-02-19 19:30:00,55.4,30.8,30.13,ESE,113,3.0,-999.0,39,0.00,,,0.00,Wunderground v.1.15,2013-02-20 01:30:00,
2013-02-19 19:35:00,55.4,30.8,30.13,ESE,113,3.0,-999.0,39,0.00,,,0.00,Wunderground v.1.15,2013-02-20 01:35:00,
2013-02-19 19:40:00,55.5,30.9,30.13,ESE,113,4.0,-999.0,39,0.00,,,0.00,Wunderground v.1.15,2013-02-20 01:40:00,
2013-02-19 19:45:00,55.5,30.9,30.13,ESE,113,4.0,-999.0,39,0.00,,,0.00,Wunderground v.1.15,2013-02-20 01:45:00,
2013-02-19 19:50:00,55.5,30.9,30.13,ESE,113,4.0,-999.0,39,0.00,,,0.00,Wunderground v.1.15,2013-02-20 01:50:00,
2013-02-19 19:55:00,55.7,30.5,30.13,ESE,113,5.0,-999.0,38,0.00,,,0.00,Wunderground v.1.15,2013-02-20 01:55:00,
2013-02-19 20:00:00,55.7,30.5,30.13,ESE,113,5.0,-999.0,38,0.00,,,0.00,Wunderground v.1.15,2013-02-20 02:00:00,
2013-02-19 20:05:00,55.7,30.5,30.13,ESE,113,5.0,-999.0,38,0.00,,,0.00,Wunderground v.1.15,2013-02-20 02:05:00,
2013-02-19 20:10:00,55.7,29.8,30.14,ESE,113,5.0,-999.0,37,0.00,,,0.00,Wunderground v.1.15,2013-02-20 02:10:00,
2013-02-19 20:15:00,55.7,29.8,30.14,ESE,113,5.0,-999.0,37,0.00,,,0.00,Wunderground v.1.15,2013-02-20 02:15:00,
2013-02-19 20:20:00,55.7,29.8,30.14,ESE,113,5.0,-999.0,37,0.00,,,0.00,Wunderground v.1.15,2013-02-20 02:20:00,
2013-02-19 20:25:00,55.5,30.3,30.15,ESE,113,3.0,-999.0,38,0.00,,,0.00,Wunderground v.1.15,2013-02-20 02:25:00,
2013-02-19 20:30:00,55.5,30.3,30.15,ESE,113,3.0,-999.0,38,0.00,,,0.00,Wunderground v.1.15,2013-02-20 02:30:00,
2013-02-19 20:35:00,55.5,30.3,30.15,ESE,113,3.0,-999.0,38,0.00,,,0.00,Wunderground v.1.15,2013-02-20 02:35:00,
2013-02-19 20:40:00,55.2,30.7,30.14,ESE,113,1.0,-999.0,39,0.00,,,0.00,Wunderground v.1.15,2013-02-20 02:40:00,
2013-02-19 20:45:00,55.2,30.7,30.14,ESE,113,1.0,-999.0,39,0.00,,,0.00,Wunderground v.1.15,2013-02-20 02:45:00,
2013-02-19 20:50:00,55.2,30.7,30.14,ESE,113,1.0,-999.0,39,0.00,,,0.00,Wunderground v.1.15,2013-02-20 02:50:00,
2013-02-19 20:55:00,54.7,31.4,30.14,ESE,113,2.0,-999.0,41,0.00,,,0.00,Wunderground v.1.15,2013-02-20 02:55:00,
2013-02-19 21:00:00,54.7,31.4,30.14,ESE,113,2.0,-999.0,41,0.00,,,0.00,Wunderground v.1.15,2013-02-20 03:00:00,
2013-02-19 21:05:00,54.7,31.4,30.14,ESE,113,2.0,-999.0,41,0.00,,,0.00,Wunderground v.1.15,2013-02-20 03:05:00,
2013-02-19 21:10:00,54.4,31.2,30.14,ESE,113,5.0,-999.0,41,0.00,,,0.00,Wunderground v.1.15,2013-02-20 03:10:00,
2013-02-19 21:15:00,54.4,31.2,30.14,ESE,113,5.0,-999.0,41,0.00,,,0.00,Wunderground v.1.15,2013-02-20 03:15:00,
2013-02-19 21:20:00,54.4,31.2,30.14,ESE,113,5.0,-999.0,41,0.00,,,0.00,Wunderground v.1.15,2013-02-20 03:20:00,
2013-02-19 21:25:00,54.4,31.2,30.16,ESE,113,1.0,-999.0,41,0.00,,,0.00,Wunderground v.1.15,2013-02-20 03:25:00,
2013-02-19 21:30:00,54.4,31.2,30.16,ESE,113,1.0,-999.0,41,0.00,,,0.00,Wunderground v.1.15,2013-02-20 03:30:00,
2013-02-19 21:35:00,54.4,31.2,30.16,ESE,113,1.0,-999.0,41,0.00,,,0.00,Wunderground v.1.15,2013-02-20 03:35:00,
2013-02-19 21:40:00,54.3,31.1,30.16,ESE,113,1.0,-999.0,41,0.00,,,0.00,Wunderground v.1.15,2013-02-20 03:40:00,
2013-02-19 21:45:00,54.3,31.1,30.16,ESE,113,1.0,-999.0,41,0.00,,,0.00,Wunderground v.1.15,2013-02-20 03:45:00,
2013-02-19 21:50:00,54.3,31.1,30.16,ESE,113,1.0,-999.0,41,0.00,,,0.00,Wunderground v.1.15,2013-02-20 03:50:00,
2013-02-19 21:55:00,54.0,32.6,30.15,ESE,113,1.0,-999.0,44,0.00,,,0.00,Wunderground v.1.15,2013-02-20 03:55:00,
2013-02-19 22:00:00,54.0,32.6,30.15,ESE,113,1.0,-999.0,44,0.00,,,0.00,Wunderground v.1.15,2013-02-20 04:00:00,
2013-02-19 22:05:00,54.0,32.6,30.15,ESE,113,1.0,-999.0,44,0.00,,,0.00,Wunderground v.1.15,2013-02-20 04:05:00,
2013-02-19 22:10:00,53.7,32.8,30.14,ESE,113,2.0,-999.0,45,0.00,,,0.00,Wunderground v.1.15,2013-02-20 04:10:00,
2013-02-19 22:15:00,53.7,32.8,30.14,ESE,113,2.0,-999.0,45,0.00,,,0.00,Wunderground v.1.15,2013-02-20 04:15:00,
2013-02-19 22:20:00,53.7,32.8,30.14,ESE,113,2.0,-999.0,45,0.00,,,0.00,Wunderground v.1.15,2013-02-20 04:20:00,
2013-02-19 22:25:00,52.9,33.2,30.13,ESE,113,4.0,-999.0,47,0.00,,,0.00,Wunderground v.1.15,2013-02-20 04:25:00,
2013-02-19 22:30:00,52.9,33.2,30.13,ESE,113,4.0,-999.0,47,0.00,,,0.00,Wunderground v.1.15,2013-02-20 04:30:00,
2013-02-19 22:35:00,52.9,33.2,30.13,ESE,113,4.0,-999.0,47,0.00,,,0.00,Wunderground v.1.15,2013-02-20 04:35:00,
2013-02-19 22:40:00,52.7,32.5,30.13,ESE,113,5.0,-999.0,46,0.00,,,0.00,Wunderground v.1.15,2013-02-20 04:40:00,
2013-02-19 22:45:00,52.7,32.5,30.13,ESE,113,5.0,-999.0,46,0.00,,,0.00,Wunderground v.1.15,2013-02-20 04:45:00,
2013-02-19 22:50:00,52.7,32.5,30.13,ESE,113,5.0,-999.0,46,0.00,,,0.00,Wunderground v.1.15,2013-02-20 04:50:00,
2013-02-19 22:55:00,52.5,32.8,30.12,ESE,113,5.0,-999.0,47,0.00,,,0.00,Wunderground v.1.15,2013-02-20 04:55:00,
2013-02-19 23:00:00,52.5,32.8,30.12,ESE,113,5.0,-999.0,47,0.00,,,0.00,Wunderground v.1.15,2013-02-20 05:00:00,
2013-02-19 23:05:00,52.5,32.8,30.12,ESE,113,5.0,-999.0,47,0.00,,,0.00,Wunderground v.1.15,2013-02-20 05:05:00,
2013-02-19 23:10:00,52.5,32.8,30.12,ESE,113,5.0,-999.0,47,0.00,,,0.00,Wunderground v.1.15,2013-02-20 05:10:00,
2013-02-19 23:15:00,52.5,32.8,30.12,ESE,113,5.0,-999.0,47,0.00,,,0.00,Wunderground v.1.15,2013-02-20 05:15:00,
2013-02-19 23:20:00,52.5,32.8,30.12,ESE,113,5.0,-999.0,47,0.00,,,0.00,Wunderground v.1.15,2013-02-20 05:20:00,
2013-02-19 23:25:00,53.2,32.4,30.13,ESE,113,6.0,-999.0,45,0.00,,,0.00,Wunderground v.1.15,2013-02-20 05:25:00,
2013-02-19 23:30:00,53.2,32.4,30.13,ESE,113,6.0,-999.0,45,0.00,,,0.00,Wunderground v.1.15,2013-02-20 05:30:00,
2013-02-19 23:35:00,53.2,32.4,30.13,ESE,113,6.0,-999.0,45,0.00,,,0.00,Wunderground v.1.15,2013-02-20 05:35:00,
2013-02-19 23:40:00,53.4,33.1,30.14,ESE,113,5.0,-999.0,46,0.00,,,0.00,Wunderground v.1.15,2013-02-20 05:40:00,
2013-02-19 23:45:00,53.4,33.1,30.14,ESE,113,5.0,-999.0,46,0.00,,,0.00,Wunderground v.1.15,2013-02-20 05:45:00,
2013-02-19 23:50:00,53.4,33.1,30.14,ESE,113,5.0,-999.0,46,0.00,,,0.00,Wunderground v.1.15,2013-02-20 05:50:00,
2013-02-19 23:55:00,53.4,33.1,30.13,ESE,113,6.0,-999.0,46,0.00,,,0.00,Wunderground v.1.15,2013-02-20 05:55:00,